Last Chance, Colorado
Current Conditions -  °F | °C
As of 7:53 AM on Sunday 21 Dec 2014 (Local Time) from KAKO Reporting Station
Clear Clear  
Wind Chill: 25°   Ceiling: Unl
Heat Index: 33°   Visibility: 10mi
Dew Point: 22°   Wind: 10mph
Humidity: 64%   Direction: 210°SSW
Pressure: 29.7"   Gusts: NA
Location:  39.8912°N, 103.605°W
Report Text: KAKO 211453Z AUTO 21009KT 10SM CLR 01/M06 A2970 RMK AO2 SLP074 T00061056 58021
Loading
Personal Weather Stations






























Interactive Weather Map New forecast layout! Learn more

10-Day Weather Forecast

Advertisements
Track Severe Weather on mobile